sensor_id;sensor_type;location;lat;lon;timestamp;P1;durP1;ratioP1;P2;durP2;ratioP2
65706;SDS011;52423;43.512;5.220;2022-08-11T00:01:43;7.60;;;4.45;;
65706;SDS011;52423;43.512;5.220;2022-08-11T00:04:13;6.15;;;4.60;;
65706;SDS011;52423;43.512;5.220;2022-08-11T00:06:40;5.38;;;4.55;;
65706;SDS011;52423;43.512;5.220;2022-08-11T00:09:12;9.32;;;4.20;;
65706;SDS011;52423;43.512;5.220;2022-08-11T00:11:44;6.32;;;4.57;;
65706;SDS011;52423;43.512;5.220;2022-08-11T00:14:22;9.07;;;4.28;;
65706;SDS011;52423;43.512;5.220;2022-08-11T00:16:56;7.00;;;4.60;;
65706;SDS011;52423;43.512;5.220;2022-08-11T00:19:27;10.00;;;4.35;;
65706;SDS011;52423;43.512;5.220;2022-08-11T00:22:00;4.95;;;4.28;;
65706;SDS011;52423;43.512;5.220;2022-08-11T00:24:34;7.13;;;4.20;;
65706;SDS011;52423;43.512;5.220;2022-08-11T00:27:02;5.32;;;4.20;;
65706;SDS011;52423;43.512;5.220;2022-08-11T00:29:29;8.25;;;4.30;;
65706;SDS011;52423;43.512;5.220;2022-08-11T00:31:56;4.40;;;4.00;;
65706;SDS011;52423;43.512;5.220;2022-08-11T00:34:24;4.88;;;3.92;;
65706;SDS011;52423;43.512;5.220;2022-08-11T00:36:53;5.65;;;4.70;;
65706;SDS011;52423;43.512;5.220;2022-08-11T00:39:24;4.90;;;4.15;;
65706;SDS011;52423;43.512;5.220;2022-08-11T00:47:52;4.78;;;4.30;;
65706;SDS011;52423;43.512;5.220;2022-08-11T01:02:08;7.75;;;4.25;;
65706;SDS011;52423;43.512;5.220;2022-08-11T01:13:04;5.57;;;4.03;;
65706;SDS011;52423;43.512;5.220;2022-08-11T01:15:57;9.25;;;4.30;;
65706;SDS011;52423;43.512;5.220;2022-08-11T01:24:31;6.43;;;4.10;;
65706;SDS011;52423;43.512;5.220;2022-08-11T01:27:30;5.03;;;4.13;;
65706;SDS011;52423;43.512;5.220;2022-08-11T01:37:11;4.28;;;3.85;;
65706;SDS011;52423;43.512;5.220;2022-08-11T01:48:05;4.00;;;3.70;;
65706;SDS011;52423;43.512;5.220;2022-08-11T01:54:23;4.97;;;4.45;;
65706;SDS011;52423;43.512;5.220;2022-08-11T01:56:41;9.15;;;4.13;;
65706;SDS011;52423;43.512;5.220;2022-08-11T01:59:28;5.53;;;4.20;;
65706;SDS011;52423;43.512;5.220;2022-08-11T02:04:39;8.45;;;4.30;;
65706;SDS011;52423;43.512;5.220;2022-08-11T02:07:25;5.75;;;4.03;;
65706;SDS011;52423;43.512;5.220;2022-08-11T02:10:28;7.55;;;4.15;;
65706;SDS011;52423;43.512;5.220;2022-08-11T02:16:02;5.20;;;3.95;;
65706;SDS011;52423;43.512;5.220;2022-08-11T02:18:38;8.38;;;4.38;;
65706;SDS011;52423;43.512;5.220;2022-08-11T02:21:36;4.13;;;3.83;;
65706;SDS011;52423;43.512;5.220;2022-08-11T02:24:28;4.35;;;3.85;;
65706;SDS011;52423;43.512;5.220;2022-08-11T02:27:05;6.32;;;3.78;;
65706;SDS011;52423;43.512;5.220;2022-08-11T02:29:46;11.05;;;3.60;;
65706;SDS011;52423;43.512;5.220;2022-08-11T02:32:24;5.85;;;3.30;;
65706;SDS011;52423;43.512;5.220;2022-08-11T02:35:18;4.18;;;3.65;;
65706;SDS011;52423;43.512;5.220;2022-08-11T02:57:48;4.82;;;3.65;;
65706;SDS011;52423;43.512;5.220;2022-08-11T03:00:20;4.00;;;3.40;;
65706;SDS011;52423;43.512;5.220;2022-08-11T03:03:12;3.80;;;3.47;;
65706;SDS011;52423;43.512;5.220;2022-08-11T03:06:03;6.05;;;3.85;;
65706;SDS011;52423;43.512;5.220;2022-08-11T03:14:48;4.25;;;3.38;;
65706;SDS011;52423;43.512;5.220;2022-08-11T03:17:56;3.80;;;3.17;;
65706;SDS011;52423;43.512;5.220;2022-08-11T03:20:52;4.63;;;3.60;;
65706;SDS011;52423;43.512;5.220;2022-08-11T03:23:33;6.97;;;3.63;;
65706;SDS011;52423;43.512;5.220;2022-08-11T03:26:09;3.30;;;3.00;;
65706;SDS011;52423;43.512;5.220;2022-08-11T03:28:52;8.65;;;3.20;;
65706;SDS011;52423;43.512;5.220;2022-08-11T03:31:31;3.53;;;3.22;;
65706;SDS011;52423;43.512;5.220;2022-08-11T03:34:30;8.30;;;3.95;;
65706;SDS011;52423;43.512;5.220;2022-08-11T03:43:52;3.30;;;3.10;;
65706;SDS011;52423;43.512;5.220;2022-08-11T03:46:11;8.75;;;3.22;;
65706;SDS011;52423;43.512;5.220;2022-08-11T03:52:03;4.55;;;3.20;;
65706;SDS011;52423;43.512;5.220;2022-08-11T04:00:19;5.95;;;3.05;;
65706;SDS011;52423;43.512;5.220;2022-08-11T04:03:07;4.53;;;3.08;;
65706;SDS011;52423;43.512;5.220;2022-08-11T04:11:32;4.03;;;2.97;;
65706;SDS011;52423;43.512;5.220;2022-08-11T04:20:42;3.00;;;2.80;;
65706;SDS011;52423;43.512;5.220;2022-08-11T04:36:36;5.32;;;2.85;;
65706;SDS011;52423;43.512;5.220;2022-08-11T04:55:31;6.95;;;3.50;;
65706;SDS011;52423;43.512;5.220;2022-08-11T05:13:01;8.40;;;3.45;;
65706;SDS011;52423;43.512;5.220;2022-08-11T05:15:48;3.45;;;2.90;;
65706;SDS011;52423;43.512;5.220;2022-08-11T05:18:36;3.97;;;3.45;;
65706;SDS011;52423;43.512;5.220;2022-08-11T05:21:35;3.88;;;3.10;;
65706;SDS011;52423;43.512;5.220;2022-08-11T05:24:23;3.95;;;2.80;;
65706;SDS011;52423;43.512;5.220;2022-08-11T05:27:13;3.85;;;3.20;;
65706;SDS011;52423;43.512;5.220;2022-08-11T05:33:22;3.53;;;3.00;;
65706;SDS011;52423;43.512;5.220;2022-08-11T05:36:07;4.10;;;2.97;;
65706;SDS011;52423;43.512;5.220;2022-08-11T05:38:43;3.33;;;3.10;;
65706;SDS011;52423;43.512;5.220;2022-08-11T05:41:36;9.60;;;3.08;;
65706;SDS011;52423;43.512;5.220;2022-08-11T05:44:20;4.47;;;2.78;;
65706;SDS011;52423;43.512;5.220;2022-08-11T05:47:05;2.90;;;2.70;;
65706;SDS011;52423;43.512;5.220;2022-08-11T05:49:49;4.32;;;2.80;;
65706;SDS011;52423;43.512;5.220;2022-08-11T05:52:35;6.68;;;3.13;;
65706;SDS011;52423;43.512;5.220;2022-08-11T05:55:20;3.28;;;2.80;;
65706;SDS011;52423;43.512;5.220;2022-08-11T05:58:07;4.95;;;2.80;;
65706;SDS011;52423;43.512;5.220;2022-08-11T06:00:42;3.05;;;2.85;;
65706;SDS011;52423;43.512;5.220;2022-08-11T06:03:10;4.38;;;2.90;;
65706;SDS011;52423;43.512;5.220;2022-08-11T06:05:44;3.83;;;3.00;;
65706;SDS011;52423;43.512;5.220;2022-08-11T06:08:11;6.60;;;3.00;;
65706;SDS011;52423;43.512;5.220;2022-08-11T06:10:40;2.88;;;2.67;;
65706;SDS011;52423;43.512;5.220;2022-08-11T06:13:07;2.70;;;2.50;;
65706;SDS011;52423;43.512;5.220;2022-08-11T06:15:42;11.25;;;3.20;;
65706;SDS011;52423;43.512;5.220;2022-08-11T06:18:11;11.63;;;3.10;;
65706;SDS011;52423;43.512;5.220;2022-08-11T06:20:46;9.10;;;3.20;;
65706;SDS011;52423;43.512;5.220;2022-08-11T06:23:15;9.10;;;3.20;;
65706;SDS011;52423;43.512;5.220;2022-08-11T06:25:47;5.32;;;2.78;;
65706;SDS011;52423;43.512;5.220;2022-08-11T06:28:14;3.28;;;2.97;;
65706;SDS011;52423;43.512;5.220;2022-08-11T06:30:43;8.77;;;3.10;;
65706;SDS011;52423;43.512;5.220;2022-08-11T06:33:11;8.38;;;3.03;;
65706;SDS011;52423;43.512;5.220;2022-08-11T06:41:39;3.60;;;3.03;;
65706;SDS011;52423;43.512;5.220;2022-08-11T06:46:37;6.68;;;2.70;;
65706;SDS011;52423;43.512;5.220;2022-08-11T06:49:06;2.78;;;2.55;;
65706;SDS011;52423;43.512;5.220;2022-08-11T06:51:51;3.92;;;2.72;;
65706;SDS011;52423;43.512;5.220;2022-08-11T06:54:19;5.45;;;3.15;;
65706;SDS011;52423;43.512;5.220;2022-08-11T06:56:45;3.92;;;2.83;;
65706;SDS011;52423;43.512;5.220;2022-08-11T06:59:31;8.65;;;3.08;;
65706;SDS011;52423;43.512;5.220;2022-08-11T07:02:30;9.18;;;3.00;;
65706;SDS011;52423;43.512;5.220;2022-08-11T07:05:20;7.72;;;2.97;;
65706;SDS011;52423;43.512;5.220;2022-08-11T07:13:48;4.05;;;2.92;;
65706;SDS011;52423;43.512;5.220;2022-08-11T07:16:38;3.50;;;3.20;;
65706;SDS011;52423;43.512;5.220;2022-08-11T07:19:08;5.85;;;3.00;;
65706;SDS011;52423;43.512;5.220;2022-08-11T07:21:54;3.30;;;3.08;;
65706;SDS011;52423;43.512;5.220;2022-08-11T07:24:41;6.47;;;3.50;;
65706;SDS011;52423;43.512;5.220;2022-08-11T07:27:41;3.40;;;3.08;;
65706;SDS011;52423;43.512;5.220;2022-08-11T07:30:27;6.00;;;3.03;;
65706;SDS011;52423;43.512;5.220;2022-08-11T07:32:58;3.85;;;3.28;;
65706;SDS011;52423;43.512;5.220;2022-08-11T07:38:07;3.47;;;3.05;;
65706;SDS011;52423;43.512;5.220;2022-08-11T07:40:38;5.65;;;3.20;;
65706;SDS011;52423;43.512;5.220;2022-08-11T07:43:06;5.03;;;2.90;;
65706;SDS011;52423;43.512;5.220;2022-08-11T07:45:33;5.25;;;3.58;;
65706;SDS011;52423;43.512;5.220;2022-08-11T07:48:18;7.72;;;2.70;;
65706;SDS011;52423;43.512;5.220;2022-08-11T07:51:03;3.78;;;3.30;;
65706;SDS011;52423;43.512;5.220;2022-08-11T07:53:48;3.88;;;3.20;;
65706;SDS011;52423;43.512;5.220;2022-08-11T07:56:15;7.38;;;2.80;;
65706;SDS011;52423;43.512;5.220;2022-08-11T07:58:43;4.55;;;3.10;;
65706;SDS011;52423;43.512;5.220;2022-08-11T08:01:28;4.97;;;2.75;;
65706;SDS011;52423;43.512;5.220;2022-08-11T08:04:15;3.63;;;3.25;;
65706;SDS011;52423;43.512;5.220;2022-08-11T08:07:03;9.07;;;3.25;;
65706;SDS011;52423;43.512;5.220;2022-08-11T08:09:49;3.78;;;2.72;;
65706;SDS011;52423;43.512;5.220;2022-08-11T08:12:34;7.30;;;3.10;;
65706;SDS011;52423;43.512;5.220;2022-08-11T08:15:19;5.30;;;3.22;;
65706;SDS011;52423;43.512;5.220;2022-08-11T08:18:05;5.55;;;2.97;;
65706;SDS011;52423;43.512;5.220;2022-08-11T08:20:36;5.90;;;3.08;;
65706;SDS011;52423;43.512;5.220;2022-08-11T08:23:04;4.95;;;2.60;;
65706;SDS011;52423;43.512;5.220;2022-08-11T08:25:32;12.15;;;3.40;;
65706;SDS011;52423;43.512;5.220;2022-08-11T08:28:09;10.57;;;3.30;;
65706;SDS011;52423;43.512;5.220;2022-08-11T08:30:38;6.43;;;2.75;;
65706;SDS011;52423;43.512;5.220;2022-08-11T08:33:19;5.10;;;3.20;;
65706;SDS011;52423;43.512;5.220;2022-08-11T08:35:50;3.90;;;2.80;;
65706;SDS011;52423;43.512;5.220;2022-08-11T08:38:48;5.63;;;3.20;;
65706;SDS011;52423;43.512;5.220;2022-08-11T08:41:22;3.08;;;2.88;;
65706;SDS011;52423;43.512;5.220;2022-08-11T08:43:53;5.97;;;2.80;;
65706;SDS011;52423;43.512;5.220;2022-08-11T08:46:24;6.60;;;3.08;;
65706;SDS011;52423;43.512;5.220;2022-08-11T08:48:53;11.82;;;3.20;;
65706;SDS011;52423;43.512;5.220;2022-08-11T08:51:19;6.25;;;3.80;;
65706;SDS011;52423;43.512;5.220;2022-08-11T08:54:09;6.70;;;3.15;;
65706;SDS011;52423;43.512;5.220;2022-08-11T08:56:39;8.77;;;3.50;;
65706;SDS011;52423;43.512;5.220;2022-08-11T08:59:07;7.00;;;3.38;;
65706;SDS011;52423;43.512;5.220;2022-08-11T09:01:36;9.10;;;3.50;;
65706;SDS011;52423;43.512;5.220;2022-08-11T09:04:09;13.40;;;3.60;;
65706;SDS011;52423;43.512;5.220;2022-08-11T09:06:37;3.78;;;3.08;;
65706;SDS011;52423;43.512;5.220;2022-08-11T09:09:09;3.67;;;2.97;;
65706;SDS011;52423;43.512;5.220;2022-08-11T09:11:39;4.10;;;2.97;;
65706;SDS011;52423;43.512;5.220;2022-08-11T09:14:19;12.65;;;3.30;;
65706;SDS011;52423;43.512;5.220;2022-08-11T09:16:45;3.60;;;3.30;;
65706;SDS011;52423;43.512;5.220;2022-08-11T09:19:13;9.35;;;3.00;;
65706;SDS011;52423;43.512;5.220;2022-08-11T09:21:47;10.43;;;3.33;;
65706;SDS011;52423;43.512;5.220;2022-08-11T09:24:35;9.75;;;2.95;;
65706;SDS011;52423;43.512;5.220;2022-08-11T09:27:34;6.85;;;2.80;;
65706;SDS011;52423;43.512;5.220;2022-08-11T09:30:00;4.72;;;2.70;;
65706;SDS011;52423;43.512;5.220;2022-08-11T09:32:26;3.03;;;2.80;;
65706;SDS011;52423;43.512;5.220;2022-08-11T09:34:53;5.55;;;2.60;;
65706;SDS011;52423;43.512;5.220;2022-08-11T09:37:20;7.80;;;3.28;;
65706;SDS011;52423;43.512;5.220;2022-08-11T09:40:05;8.98;;;3.08;;
65706;SDS011;52423;43.512;5.220;2022-08-11T09:42:51;21.70;;;3.40;;
65706;SDS011;52423;43.512;5.220;2022-08-11T09:45:36;10.85;;;3.70;;
65706;SDS011;52423;43.512;5.220;2022-08-11T09:48:02;6.82;;;3.20;;
65706;SDS011;52423;43.512;5.220;2022-08-11T09:50:31;13.00;;;3.15;;
65706;SDS011;52423;43.512;5.220;2022-08-11T09:52:58;13.15;;;3.42;;
65706;SDS011;52423;43.512;5.220;2022-08-11T09:55:25;14.27;;;3.53;;
65706;SDS011;52423;43.512;5.220;2022-08-11T09:57:51;5.97;;;3.35;;
65706;SDS011;52423;43.512;5.220;2022-08-11T10:00:36;8.73;;;3.33;;
65706;SDS011;52423;43.512;5.220;2022-08-11T10:03:03;12.00;;;2.90;;
65706;SDS011;52423;43.512;5.220;2022-08-11T10:05:33;5.80;;;3.40;;
65706;SDS011;52423;43.512;5.220;2022-08-11T10:08:20;12.90;;;3.42;;
65706;SDS011;52423;43.512;5.220;2022-08-11T10:10:50;8.03;;;3.50;;
65706;SDS011;52423;43.512;5.220;2022-08-11T10:13:18;7.05;;;3.08;;
65706;SDS011;52423;43.512;5.220;2022-08-11T10:15:50;7.28;;;3.05;;
65706;SDS011;52423;43.512;5.220;2022-08-11T10:18:23;5.15;;;3.20;;
65706;SDS011;52423;43.512;5.220;2022-08-11T10:24:01;8.80;;;3.40;;
65706;SDS011;52423;43.512;5.220;2022-08-11T10:26:50;5.50;;;3.30;;
65706;SDS011;52423;43.512;5.220;2022-08-11T10:29:40;6.65;;;3.90;;
65706;SDS011;52423;43.512;5.220;2022-08-11T10:32:26;5.90;;;3.30;;
65706;SDS011;52423;43.512;5.220;2022-08-11T10:35:13;5.05;;;3.40;;
65706;SDS011;52423;43.512;5.220;2022-08-11T10:37:40;4.97;;;3.38;;
65706;SDS011;52423;43.512;5.220;2022-08-11T10:40:09;7.35;;;3.25;;
65706;SDS011;52423;43.512;5.220;2022-08-11T10:42:39;4.00;;;3.70;;
65706;SDS011;52423;43.512;5.220;2022-08-11T10:45:25;5.10;;;3.30;;
65706;SDS011;52423;43.512;5.220;2022-08-11T10:48:09;5.43;;;3.05;;
65706;SDS011;52423;43.512;5.220;2022-08-11T10:50:36;3.80;;;3.35;;
65706;SDS011;52423;43.512;5.220;2022-08-11T10:53:21;8.18;;;3.30;;
65706;SDS011;52423;43.512;5.220;2022-08-11T10:56:07;7.05;;;3.60;;
65706;SDS011;52423;43.512;5.220;2022-08-11T10:59:00;6.20;;;3.70;;
65706;SDS011;52423;43.512;5.220;2022-08-11T11:01:30;4.05;;;3.75;;
65706;SDS011;52423;43.512;5.220;2022-08-11T11:04:03;9.10;;;3.88;;
65706;SDS011;52423;43.512;5.220;2022-08-11T11:09:10;8.13;;;4.30;;
65706;SDS011;52423;43.512;5.220;2022-08-11T11:11:45;6.55;;;3.65;;
65706;SDS011;52423;43.512;5.220;2022-08-11T11:14:32;4.57;;;4.10;;
65706;SDS011;52423;43.512;5.220;2022-08-11T11:17:22;4.75;;;3.88;;
65706;SDS011;52423;43.512;5.220;2022-08-11T11:20:11;5.38;;;4.18;;
65706;SDS011;52423;43.512;5.220;2022-08-11T11:22:41;4.88;;;4.35;;
65706;SDS011;52423;43.512;5.220;2022-08-11T11:30:34;4.20;;;3.90;;
65706;SDS011;52423;43.512;5.220;2022-08-11T11:33:20;7.80;;;3.97;;
65706;SDS011;52423;43.512;5.220;2022-08-11T11:38:36;8.02;;;3.78;;
65706;SDS011;52423;43.512;5.220;2022-08-11T11:41:02;8.65;;;3.88;;
65706;SDS011;52423;43.512;5.220;2022-08-11T11:43:47;9.30;;;4.00;;
65706;SDS011;52423;43.512;5.220;2022-08-11T11:46:12;9.25;;;3.53;;
65706;SDS011;52423;43.512;5.220;2022-08-11T11:48:38;7.75;;;3.83;;
65706;SDS011;52423;43.512;5.220;2022-08-11T11:51:05;4.05;;;3.67;;
65706;SDS011;52423;43.512;5.220;2022-08-11T11:53:32;6.35;;;3.80;;
65706;SDS011;52423;43.512;5.220;2022-08-11T11:55:59;5.55;;;3.67;;
65706;SDS011;52423;43.512;5.220;2022-08-11T11:58:26;5.35;;;3.70;;
65706;SDS011;52423;43.512;5.220;2022-08-11T12:01:10;7.63;;;3.90;;
65706;SDS011;52423;43.512;5.220;2022-08-11T12:03:40;4.82;;;3.80;;
65706;SDS011;52423;43.512;5.220;2022-08-11T12:06:10;4.00;;;3.70;;
65706;SDS011;52423;43.512;5.220;2022-08-11T12:08:40;8.03;;;3.80;;
65706;SDS011;52423;43.512;5.220;2022-08-11T12:11:10;5.22;;;3.55;;
65706;SDS011;52423;43.512;5.220;2022-08-11T12:13:56;16.27;;;3.70;;
65706;SDS011;52423;43.512;5.220;2022-08-11T12:16:24;4.65;;;3.55;;
65706;SDS011;52423;43.512;5.220;2022-08-11T12:18:52;6.15;;;3.42;;
65706;SDS011;52423;43.512;5.220;2022-08-11T12:21:20;3.60;;;3.30;;
65706;SDS011;52423;43.512;5.220;2022-08-11T12:23:48;5.75;;;3.28;;
65706;SDS011;52423;43.512;5.220;2022-08-11T12:26:33;10.10;;;4.00;;
65706;SDS011;52423;43.512;5.220;2022-08-11T12:29:19;9.10;;;3.72;;
65706;SDS011;52423;43.512;5.220;2022-08-11T12:31:50;11.50;;;4.00;;
65706;SDS011;52423;43.512;5.220;2022-08-11T12:34:16;7.65;;;4.30;;
65706;SDS011;52423;43.512;5.220;2022-08-11T12:36:42;3.83;;;3.22;;
65706;SDS011;52423;43.512;5.220;2022-08-11T12:39:18;15.38;;;3.63;;
65706;SDS011;52423;43.512;5.220;2022-08-11T12:42:07;12.05;;;3.55;;
65706;SDS011;52423;43.512;5.220;2022-08-11T12:44:53;11.73;;;3.80;;
65706;SDS011;52423;43.512;5.220;2022-08-11T12:47:41;12.05;;;4.93;;
65706;SDS011;52423;43.512;5.220;2022-08-11T12:50:30;12.93;;;4.00;;
65706;SDS011;52423;43.512;5.220;2022-08-11T12:53:14;16.77;;;3.53;;
65706;SDS011;52423;43.512;5.220;2022-08-11T12:55:40;8.23;;;3.80;;
65706;SDS011;52423;43.512;5.220;2022-08-11T12:58:25;9.93;;;3.30;;
65706;SDS011;52423;43.512;5.220;2022-08-11T13:00:52;9.60;;;3.30;;
65706;SDS011;52423;43.512;5.220;2022-08-11T13:03:36;11.55;;;3.70;;
65706;SDS011;52423;43.512;5.220;2022-08-11T13:06:22;11.90;;;4.00;;
65706;SDS011;52423;43.512;5.220;2022-08-11T13:08:49;7.80;;;3.35;;
65706;SDS011;52423;43.512;5.220;2022-08-11T13:11:15;11.98;;;3.58;;
65706;SDS011;52423;43.512;5.220;2022-08-11T13:14:00;9.38;;;3.80;;
65706;SDS011;52423;43.512;5.220;2022-08-11T13:16:30;8.40;;;3.50;;
65706;SDS011;52423;43.512;5.220;2022-08-11T13:19:17;12.75;;;3.65;;
65706;SDS011;52423;43.512;5.220;2022-08-11T13:21:44;11.32;;;4.30;;
65706;SDS011;52423;43.512;5.220;2022-08-11T13:24:12;9.73;;;3.67;;
65706;SDS011;52423;43.512;5.220;2022-08-11T13:26:37;10.00;;;3.70;;
65706;SDS011;52423;43.512;5.220;2022-08-11T13:29:03;16.73;;;4.07;;
65706;SDS011;52423;43.512;5.220;2022-08-11T13:31:29;9.13;;;3.58;;
65706;SDS011;52423;43.512;5.220;2022-08-11T13:33:57;7.10;;;3.53;;
65706;SDS011;52423;43.512;5.220;2022-08-11T13:36:24;8.27;;;3.58;;
65706;SDS011;52423;43.512;5.220;2022-08-11T13:38:53;3.97;;;3.40;;
65706;SDS011;52423;43.512;5.220;2022-08-11T13:41:23;3.97;;;3.15;;
65706;SDS011;52423;43.512;5.220;2022-08-11T13:44:09;10.70;;;3.30;;
65706;SDS011;52423;43.512;5.220;2022-08-11T13:46:37;5.75;;;2.92;;
65706;SDS011;52423;43.512;5.220;2022-08-11T13:49:04;9.48;;;3.55;;
65706;SDS011;52423;43.512;5.220;2022-08-11T13:51:33;4.10;;;3.33;;
65706;SDS011;52423;43.512;5.220;2022-08-11T13:54:02;3.38;;;3.10;;
65706;SDS011;52423;43.512;5.220;2022-08-11T13:56:31;6.88;;;3.08;;
65706;SDS011;52423;43.512;5.220;2022-08-11T13:58:58;4.40;;;2.95;;
65706;SDS011;52423;43.512;5.220;2022-08-11T14:01:27;4.20;;;2.92;;
65706;SDS011;52423;43.512;5.220;2022-08-11T14:03:57;5.82;;;2.80;;
65706;SDS011;52423;43.512;5.220;2022-08-11T14:06:30;3.80;;;2.90;;
65706;SDS011;52423;43.512;5.220;2022-08-11T14:08:56;6.90;;;3.03;;
65706;SDS011;52423;43.512;5.220;2022-08-11T14:11:23;5.75;;;3.10;;
65706;SDS011;52423;43.512;5.220;2022-08-11T14:14:08;5.35;;;3.15;;
65706;SDS011;52423;43.512;5.220;2022-08-11T14:16:41;4.35;;;2.95;;
65706;SDS011;52423;43.512;5.220;2022-08-11T14:19:12;5.50;;;3.10;;
65706;SDS011;52423;43.512;5.220;2022-08-11T14:21:42;5.75;;;2.90;;
65706;SDS011;52423;43.512;5.220;2022-08-11T14:24:28;5.85;;;3.08;;
65706;SDS011;52423;43.512;5.220;2022-08-11T14:26:55;8.35;;;3.40;;
65706;SDS011;52423;43.512;5.220;2022-08-11T14:29:22;3.65;;;3.00;;
65706;SDS011;52423;43.512;5.220;2022-08-11T14:31:51;7.63;;;3.70;;
65706;SDS011;52423;43.512;5.220;2022-08-11T14:34:20;6.60;;;3.03;;
65706;SDS011;52423;43.512;5.220;2022-08-11T14:36:50;7.88;;;3.42;;
65706;SDS011;52423;43.512;5.220;2022-08-11T14:39:21;8.02;;;3.40;;
65706;SDS011;52423;43.512;5.220;2022-08-11T14:44:37;5.72;;;3.45;;
65706;SDS011;52423;43.512;5.220;2022-08-11T14:47:24;7.60;;;3.13;;
65706;SDS011;52423;43.512;5.220;2022-08-11T14:49:52;6.22;;;3.60;;
65706;SDS011;52423;43.512;5.220;2022-08-11T14:52:19;8.00;;;3.30;;
65706;SDS011;52423;43.512;5.220;2022-08-11T14:54:48;7.70;;;3.25;;
65706;SDS011;52423;43.512;5.220;2022-08-11T14:57:35;2.97;;;2.85;;
65706;SDS011;52423;43.512;5.220;2022-08-11T15:00:04;3.30;;;3.10;;
65706;SDS011;52423;43.512;5.220;2022-08-11T15:02:32;3.10;;;2.83;;
65706;SDS011;52423;43.512;5.220;2022-08-11T15:05:19;6.68;;;3.38;;
65706;SDS011;52423;43.512;5.220;2022-08-11T15:07:45;11.52;;;3.50;;
65706;SDS011;52423;43.512;5.220;2022-08-11T15:10:11;11.35;;;3.20;;
65706;SDS011;52423;43.512;5.220;2022-08-11T15:12:38;3.58;;;3.25;;
65706;SDS011;52423;43.512;5.220;2022-08-11T15:15:08;3.80;;;3.50;;
65706;SDS011;52423;43.512;5.220;2022-08-11T15:17:54;7.22;;;3.33;;
65706;SDS011;52423;43.512;5.220;2022-08-11T15:20:22;3.53;;;3.22;;
65706;SDS011;52423;43.512;5.220;2022-08-11T15:23:08;6.25;;;3.58;;
65706;SDS011;52423;43.512;5.220;2022-08-11T15:26:15;7.00;;;3.58;;
65706;SDS011;52423;43.512;5.220;2022-08-11T15:28:47;4.60;;;2.95;;
65706;SDS011;52423;43.512;5.220;2022-08-11T15:31:33;3.80;;;3.50;;
65706;SDS011;52423;43.512;5.220;2022-08-11T15:34:08;3.50;;;3.20;;
65706;SDS011;52423;43.512;5.220;2022-08-11T15:37:00;4.40;;;3.10;;
65706;SDS011;52423;43.512;5.220;2022-08-11T15:39:49;4.75;;;3.30;;
65706;SDS011;52423;43.512;5.220;2022-08-11T15:42:43;3.67;;;3.38;;
65706;SDS011;52423;43.512;5.220;2022-08-11T15:45:39;5.72;;;3.60;;
65706;SDS011;52423;43.512;5.220;2022-08-11T15:48:18;3.70;;;3.40;;
65706;SDS011;52423;43.512;5.220;2022-08-11T15:50:51;3.63;;;3.33;;
65706;SDS011;52423;43.512;5.220;2022-08-11T15:53:21;3.42;;;3.20;;
65706;SDS011;52423;43.512;5.220;2022-08-11T15:55:51;5.40;;;3.30;;
65706;SDS011;52423;43.512;5.220;2022-08-11T15:58:18;4.85;;;3.08;;
65706;SDS011;52423;43.512;5.220;2022-08-11T16:01:04;3.20;;;3.00;;
65706;SDS011;52423;43.512;5.220;2022-08-11T16:03:51;5.82;;;3.80;;
65706;SDS011;52423;43.512;5.220;2022-08-11T16:06:37;5.95;;;3.03;;
65706;SDS011;52423;43.512;5.220;2022-08-11T16:09:10;3.92;;;3.58;;
65706;SDS011;52423;43.512;5.220;2022-08-11T16:11:39;3.47;;;3.28;;
65706;SDS011;52423;43.512;5.220;2022-08-11T16:14:06;5.70;;;3.00;;
65706;SDS011;52423;43.512;5.220;2022-08-11T16:16:53;6.22;;;2.92;;
65706;SDS011;52423;43.512;5.220;2022-08-11T16:19:22;5.28;;;3.30;;
65706;SDS011;52423;43.512;5.220;2022-08-11T16:21:51;3.70;;;3.33;;
65706;SDS011;52423;43.512;5.220;2022-08-11T16:24:18;3.20;;;3.00;;
65706;SDS011;52423;43.512;5.220;2022-08-11T16:26:44;6.07;;;3.20;;
65706;SDS011;52423;43.512;5.220;2022-08-11T16:29:11;3.88;;;3.20;;
65706;SDS011;52423;43.512;5.220;2022-08-11T16:31:37;3.30;;;3.00;;
65706;SDS011;52423;43.512;5.220;2022-08-11T16:34:06;5.88;;;3.33;;
65706;SDS011;52423;43.512;5.220;2022-08-11T16:36:53;3.30;;;3.00;;
65706;SDS011;52423;43.512;5.220;2022-08-11T16:39:39;3.70;;;3.40;;
65706;SDS011;52423;43.512;5.220;2022-08-11T16:42:06;3.58;;;3.10;;
65706;SDS011;52423;43.512;5.220;2022-08-11T16:44:52;3.60;;;3.30;;
65706;SDS011;52423;43.512;5.220;2022-08-11T16:47:39;3.50;;;3.20;;
65706;SDS011;52423;43.512;5.220;2022-08-11T16:50:08;3.22;;;3.03;;
65706;SDS011;52423;43.512;5.220;2022-08-11T16:52:34;4.13;;;2.90;;
65706;SDS011;52423;43.512;5.220;2022-08-11T16:55:00;14.48;;;3.53;;
65706;SDS011;52423;43.512;5.220;2022-08-11T16:57:28;3.80;;;3.50;;
65706;SDS011;52423;43.512;5.220;2022-08-11T17:00:15;3.65;;;2.65;;
65706;SDS011;52423;43.512;5.220;2022-08-11T17:02:43;5.82;;;3.40;;
65706;SDS011;52423;43.512;5.220;2022-08-11T17:05:31;4.13;;;3.17;;
65706;SDS011;52423;43.512;5.220;2022-08-11T17:08:19;3.95;;;3.40;;
65706;SDS011;52423;43.512;5.220;2022-08-11T17:11:09;5.70;;;3.60;;
65706;SDS011;52423;43.512;5.220;2022-08-11T17:13:57;9.88;;;3.35;;
65706;SDS011;52423;43.512;5.220;2022-08-11T17:16:26;6.68;;;2.92;;
65706;SDS011;52423;43.512;5.220;2022-08-11T17:19:05;6.78;;;3.10;;
65706;SDS011;52423;43.512;5.220;2022-08-11T17:21:41;5.22;;;3.53;;
65706;SDS011;52423;43.512;5.220;2022-08-11T17:24:29;4.05;;;3.42;;
65706;SDS011;52423;43.512;5.220;2022-08-11T17:26:59;6.55;;;3.30;;
65706;SDS011;52423;43.512;5.220;2022-08-11T17:29:31;4.28;;;3.40;;
65706;SDS011;52423;43.512;5.220;2022-08-11T17:32:00;4.68;;;3.33;;
65706;SDS011;52423;43.512;5.220;2022-08-11T17:34:47;3.58;;;3.33;;
65706;SDS011;52423;43.512;5.220;2022-08-11T17:37:34;3.40;;;3.10;;
65706;SDS011;52423;43.512;5.220;2022-08-11T17:40:03;3.35;;;3.15;;
65706;SDS011;52423;43.512;5.220;2022-08-11T17:42:31;3.75;;;3.45;;
65706;SDS011;52423;43.512;5.220;2022-08-11T17:45:17;3.20;;;3.00;;
65706;SDS011;52423;43.512;5.220;2022-08-11T17:48:04;3.70;;;3.40;;
65706;SDS011;52423;43.512;5.220;2022-08-11T17:50:50;3.85;;;3.55;;
65706;SDS011;52423;43.512;5.220;2022-08-11T17:53:17;4.28;;;3.47;;
65706;SDS011;52423;43.512;5.220;2022-08-11T17:56:02;5.10;;;3.72;;
65706;SDS011;52423;43.512;5.220;2022-08-11T17:58:48;3.80;;;3.50;;
65706;SDS011;52423;43.512;5.220;2022-08-11T18:01:35;3.92;;;3.63;;
65706;SDS011;52423;43.512;5.220;2022-08-11T18:04:03;6.13;;;3.70;;
65706;SDS011;52423;43.512;5.220;2022-08-11T18:06:32;4.20;;;3.80;;
65706;SDS011;52423;43.512;5.220;2022-08-11T18:09:01;4.22;;;3.45;;
65706;SDS011;52423;43.512;5.220;2022-08-11T18:11:48;5.82;;;4.35;;
65706;SDS011;52423;43.512;5.220;2022-08-11T18:14:33;8.10;;;4.10;;
65706;SDS011;52423;43.512;5.220;2022-08-11T18:17:19;4.30;;;3.90;;
65706;SDS011;52423;43.512;5.220;2022-08-11T18:20:04;4.53;;;4.13;;
65706;SDS011;52423;43.512;5.220;2022-08-11T18:22:49;5.55;;;4.22;;
65706;SDS011;52423;43.512;5.220;2022-08-11T18:25:38;4.03;;;3.72;;
65706;SDS011;52423;43.512;5.220;2022-08-11T18:28:26;5.15;;;4.20;;
65706;SDS011;52423;43.512;5.220;2022-08-11T18:31:15;3.92;;;3.63;;
65706;SDS011;52423;43.512;5.220;2022-08-11T18:34:06;4.13;;;3.83;;
65706;SDS011;52423;43.512;5.220;2022-08-11T18:37:00;5.03;;;4.07;;
65706;SDS011;52423;43.512;5.220;2022-08-11T18:39:48;6.40;;;3.90;;
65706;SDS011;52423;43.512;5.220;2022-08-11T18:42:36;6.30;;;3.83;;
65706;SDS011;52423;43.512;5.220;2022-08-11T18:45:24;4.18;;;3.80;;
65706;SDS011;52423;43.512;5.220;2022-08-11T18:48:09;4.18;;;3.80;;
65706;SDS011;52423;43.512;5.220;2022-08-11T18:50:59;4.18;;;3.72;;
65706;SDS011;52423;43.512;5.220;2022-08-11T18:53:56;4.15;;;3.75;;
65706;SDS011;52423;43.512;5.220;2022-08-11T18:56:45;5.20;;;3.97;;